Terminal Aerodrome Forecast
Issued by NWS Mt. Holly, NJ

Home | Current Version | Previous Version | Text Only | Print | Product List | Glossary On
Versions: 1 2 3 4 5 6 7 8 9 10 11 12 13 14 15 16 17 18 19 20 21 22 23 24 25 26 27 28 29 30 31 32 33 34 35 36 37 38 39 40 41 42 43 44 45 46 47 48 49
010
FTUS41 KPHI 231627 AAB
TAFABE
TAF AMD
KABE 231627Z 2316/2412 22005KT P6SM OVC015
      TEMPO 2316/2318 BKN005
     FM231800 23012G18KT P6SM SCT025 OVC050
      TEMPO 2320/2324 3SM TSRA BKN025CB
     FM240000 23008KT P6SM OVC040
     FM240800 24007KT 4SM SHRA OVC015=

USA.gov is the U.S. government's official web portal to all federal, state and local government web resources and services.